Time;durP1;ratioP1;P1;durP2;ratioP2;P2;SDS_P1;SDS_P2;PMS_P1;PMS_P2;Temp;Humidity;BMP_temperature;BMP_pressure;BME280_temperature;BME280_humidity;BME280_pressure;Samples;Min_cycle;Max_cycle;Signal;HPM_P1;HPM_P2
2023/05/18 00:00:18;;;;;;;6.90;4.00;;;;;20.20;101606.00;;;;2077333;28;20217;-51
2023/05/18 00:01:18;;;;;;;5.43;3.60;;;;;20.20;101607.00;;;;2076153;28;20213;-52
2023/05/18 00:02:20;;;;;;;6.30;3.87;;;;;20.20;101602.00;;;;2068283;28;20217;-51
2023/05/18 00:03:20;;;;;;;5.45;3.88;;;;;20.20;101603.00;;;;2076813;28;20213;-52
2023/05/18 00:04:22;;;;;;;6.57;4.20;;;;;20.20;101609.00;;;;2076394;28;20221;-51
2023/05/18 00:05:23;;;;;;;6.65;3.75;;;;;20.20;101609.00;;;;2077494;28;20561;-52
2023/05/18 00:06:24;;;;;;;5.27;3.83;;;;;20.20;101590.00;;;;2078020;28;20267;-52
2023/05/18 00:07:24;;;;;;;6.93;3.95;;;;;20.20;101597.00;;;;2068471;28;20682;-51
2023/05/18 00:08:24;;;;;;;6.13;3.80;;;;;20.20;101596.00;;;;2076654;28;20237;-52
2023/05/18 00:09:25;;;;;;;6.30;3.70;;;;;20.20;101601.00;;;;2082650;28;20889;-51
2023/05/18 00:10:25;;;;;;;5.27;4.00;;;;;20.20;101596.00;;;;2078480;28;20763;-52
2023/05/18 00:11:25;;;;;;;5.60;4.27;;;;;20.20;101599.00;;;;2077371;28;20244;-51
2023/05/18 00:12:26;;;;;;;5.30;3.43;;;;;20.20;101599.00;;;;2068576;28;20213;-52
2023/05/18 00:13:26;;;;;;;6.93;3.77;;;;;20.20;101597.00;;;;2092792;28;20204;-51
2023/05/18 00:14:26;;;;;;;5.80;3.50;;;;;20.20;101606.00;;;;2083683;28;20204;-52
2023/05/18 00:15:27;;;;;;;5.33;3.77;;;;;20.20;101599.00;;;;2077036;28;20225;-51
2023/05/18 00:16:27;;;;;;;6.23;3.40;;;;;20.20;101596.00;;;;2077597;28;20220;-52
2023/05/18 00:17:27;;;;;;;5.57;3.60;;;;;20.20;101597.00;;;;2069352;28;20209;-51
2023/05/18 00:18:28;;;;;;;6.17;3.50;;;;;20.20;101600.00;;;;2085114;28;20213;-51
2023/05/18 00:19:28;;;;;;;5.93;3.60;;;;;20.20;101595.00;;;;2082668;28;20221;-50
2023/05/18 00:20:29;;;;;;;7.87;3.50;;;;;20.30;101597.00;;;;2078852;28;20275;-50
2023/05/18 00:21:32;;;;;;;6.43;3.40;;;;;20.30;101599.00;;;;2077453;28;20224;-51
2023/05/18 00:22:32;;;;;;;6.18;3.80;;;;;20.30;101591.00;;;;2071891;28;20745;-51
2023/05/18 00:23:32;;;;;;;5.37;3.40;;;;;20.30;101606.00;;;;2068539;28;20270;-51
2023/05/18 00:24:33;;;;;;;8.60;4.53;;;;;20.30;101601.00;;;;2068382;28;20587;-49
2023/05/18 00:25:33;;;;;;;4.63;3.57;;;;;20.20;101597.00;;;;2079527;28;20584;-49
2023/05/18 00:26:34;;;;;;;5.60;3.20;;;;;20.30;101601.00;;;;2077766;28;20221;-50
2023/05/18 00:27:34;;;;;;;10.00;4.10;;;;;20.30;101595.00;;;;2073511;28;20224;-49
2023/05/18 00:28:34;;;;;;;4.83;3.20;;;;;20.30;101590.00;;;;2085264;28;20303;-49
2023/05/18 00:29:35;;;;;;;6.33;3.27;;;;;20.30;101607.00;;;;2081176;28;20236;-49
2023/05/18 00:30:35;;;;;;;4.57;3.20;;;;;20.30;101600.00;;;;2077490;28;20215;-49
2023/05/18 00:31:37;;;;;;;7.43;3.30;;;;;20.30;101601.00;;;;2077271;28;20213;-48
2023/05/18 00:32:37;;;;;;;4.55;3.13;;;;;20.30;101600.00;;;;2070123;28;20240;-49
2023/05/18 00:33:38;;;;;;;6.00;3.00;;;;;20.20;101594.00;;;;2084667;28;20240;-49
2023/05/18 00:34:38;;;;;;;5.10;3.13;;;;;20.20;101591.00;;;;2084272;28;20219;-49
2023/05/18 00:35:38;;;;;;;5.53;3.10;;;;;20.20;101600.00;;;;2077922;28;20221;-48
2023/05/18 00:36:39;;;;;;;6.03;3.40;;;;;20.30;101596.00;;;;2078800;28;20222;-49
2023/05/18 00:37:39;;;;;;;4.43;3.17;;;;;20.20;101598.00;;;;2072441;28;20229;-49
2023/05/18 00:38:39;;;;;;;7.33;3.50;;;;;20.20;101600.00;;;;2084571;28;20303;-49
2023/05/18 00:39:40;;;;;;;3.70;2.73;;;;;20.20;101599.00;;;;2086625;28;20225;-49
2023/05/18 00:40:41;;;;;;;4.50;2.90;;;;;20.20;101600.00;;;;2077047;28;20229;-49
2023/05/18 00:41:41;;;;;;;6.23;3.60;;;;;20.20;101605.00;;;;2079518;28;20220;-49
2023/05/18 00:42:41;;;;;;;4.77;3.47;;;;;20.20;101605.00;;;;2070307;28;20924;-49
2023/05/18 00:43:42;;;;;;;5.07;3.10;;;;;20.20;101579.00;;;;2074987;28;20752;-49
2023/05/18 00:44:42;;;;;;;5.27;3.33;;;;;20.20;101598.00;;;;2076918;28;20896;-49
2023/05/18 00:45:42;;;;;;;4.83;2.97;;;;;20.20;101603.00;;;;2076016;28;20681;-48
2023/05/18 00:46:43;;;;;;;4.43;3.20;;;;;20.20;101601.00;;;;2077818;28;20615;-49
2023/05/18 00:47:43;;;;;;;4.30;2.70;;;;;20.20;101603.00;;;;2070387;28;20292;-49
2023/05/18 00:48:43;;;;;;;3.03;2.37;;;;;20.20;101601.00;;;;2076283;28;20209;-49
2023/05/18 00:49:44;;;;;;;4.63;3.20;;;;;20.20;101602.00;;;;2075471;28;20209;-48
2023/05/18 00:50:44;;;;;;;5.17;3.00;;;;;20.20;101602.00;;;;2075645;28;20323;-49
2023/05/18 00:51:45;;;;;;;4.77;2.70;;;;;20.20;101604.00;;;;2079172;28;20287;-49
2023/05/18 00:52:45;;;;;;;5.00;3.47;;;;;20.20;101603.00;;;;2071311;28;20224;-49
2023/05/18 00:53:46;;;;;;;3.80;3.00;;;;;20.20;101602.00;;;;2071788;28;20861;-49
2023/05/18 00:54:46;;;;;;;4.03;3.03;;;;;20.20;101595.00;;;;2067358;28;20243;-49
2023/05/18 00:55:46;;;;;;;6.57;2.90;;;;;20.20;101599.00;;;;2076773;28;20280;-49
2023/05/18 00:56:47;;;;;;;3.90;2.63;;;;;20.20;101605.00;;;;2076969;28;20297;-49
2023/05/18 00:57:47;;;;;;;3.67;2.43;;;;;20.20;101601.00;;;;2065737;28;20696;-49
2023/05/18 00:58:48;;;;;;;5.50;3.47;;;;;20.20;101598.00;;;;2065449;28;20214;-49
2023/05/18 00:59:49;;;;;;;5.10;3.10;;;;;20.20;101591.00;;;;2067836;28;20217;-49
2023/05/18 01:00:50;;;;;;;4.70;2.95;;;;;20.20;101595.00;;;;2076500;28;20214;-48
2023/05/18 01:01:50;;;;;;;4.60;3.10;;;;;20.20;101616.00;;;;2076761;28;20221;-49
2023/05/18 01:02:51;;;;;;;4.80;2.30;;;;;20.20;101595.00;;;;2063601;28;20757;-48
2023/05/18 01:03:55;;;;;;;4.90;3.13;;;;;20.20;101596.00;;;;2087308;28;20680;-49
2023/05/18 01:04:55;;;;;;;4.38;2.63;;;;;20.20;101592.00;;;;2075710;28;20296;-49
2023/05/18 01:05:56;;;;;;;5.47;3.50;;;;;20.20;101600.00;;;;2076666;28;20221;-49
2023/05/18 01:06:57;;;;;;;6.75;2.70;;;;;20.20;101601.00;;;;2077475;28;20208;-49
2023/05/18 01:07:57;;;;;;;4.33;2.60;;;;;20.10;101594.00;;;;2067207;28;20240;-49
2023/05/18 01:08:59;;;;;;;4.60;2.73;;;;;20.20;101600.00;;;;2068017;28;20213;-49
2023/05/18 01:10:00;;;;;;;4.70;2.85;;;;;20.20;101603.00;;;;2045855;28;20226;-48
2023/05/18 01:11:20;;;;;;;3.77;2.17;;;;;20.20;101595.00;;;;2068030;28;20214;-49
2023/05/18 01:12:24;;;;;;;4.22;2.75;;;;;20.20;101591.00;;;;2066449;28;20910;-49
2023/05/18 01:13:41;;;;;;;5.43;2.90;;;;;20.10;101597.00;;;;2069002;28;20218;-49
2023/05/18 01:14:56;;;;;;;3.78;2.60;;;;;20.10;101599.00;;;;2070634;28;20302;-49
2023/05/18 01:15:57;;;;;;;3.97;2.65;;;;;20.10;101601.00;;;;2076560;28;20209;-49
2023/05/18 01:17:22;;;;;;;4.43;2.47;;;;;20.10;101600.00;;;;2078108;28;20209;-49
2023/05/18 01:18:27;;;;;;;2.88;2.58;;;;;20.10;101587.00;;;;2060210;28;20309;-49
2023/05/18 01:19:57;;;;;;;4.13;2.35;;;;;20.10;101604.00;;;;2077460;28;20208;-48
2023/05/18 01:21:09;;;;;;;4.35;2.53;;;;;20.20;101598.00;;;;2057498;28;20215;-49
2023/05/18 01:22:47;;;;;;;7.28;3.33;;;;;20.10;101604.00;;;;2076211;28;20217;-49
2023/05/18 01:24:03;;;;;;;3.67;2.38;;;;;20.10;101603.00;;;;2074294;28;20217;-48
2023/05/18 01:25:22;;;;;;;3.40;2.55;;;;;20.20;101604.00;;;;2074202;28;20641;-49
2023/05/18 01:26:30;;;;;;;3.70;2.20;;;;;20.10;101600.00;;;;2078107;28;20248;-49
2023/05/18 01:27:36;;;;;;;3.20;2.33;;;;;20.10;101607.00;;;;2066329;28;20236;-49
2023/05/18 01:28:36;;;;;;;4.20;2.40;;;;;20.10;101613.00;;;;2078051;28;20256;-49
2023/05/18 01:29:37;;;;;;;3.10;2.77;;;;;20.10;101609.00;;;;2067332;28;20217;-49
2023/05/18 01:30:39;;;;;;;4.13;2.30;;;;;20.10;101606.00;;;;2067972;28;20210;-49
2023/05/18 01:31:40;;;;;;;5.05;2.60;;;;;20.10;101614.00;;;;2076635;28;20276;-49
2023/05/18 01:32:41;;;;;;;4.20;2.57;;;;;20.10;101603.00;;;;2066183;28;20225;-49
2023/05/18 01:33:42;;;;;;;3.25;2.33;;;;;20.10;101616.00;;;;2074964;28;20300;-50
2023/05/18 01:34:42;;;;;;;3.10;1.90;;;;;20.20;101604.00;;;;2075072;28;20297;-51
2023/05/18 01:35:47;;;;;;;2.80;2.30;;;;;20.10;101597.00;;;;2077314;28;20205;-51
2023/05/18 01:36:47;;;;;;;3.63;2.60;;;;;20.10;101607.00;;;;2075357;28;20273;-51
2023/05/18 01:37:47;;;;;;;3.70;2.33;;;;;20.10;101612.00;;;;2070116;28;20712;-50
2023/05/18 01:38:47;;;;;;;2.90;1.90;;;;;20.10;101605.00;;;;2085232;28;21085;-51
2023/05/18 01:39:48;;;;;;;3.40;1.80;;;;;20.10;101606.00;;;;2079906;28;20949;-51
2023/05/18 01:41:07;;;;;;;3.10;1.93;;;;;20.10;101613.00;;;;2075831;28;20648;-51
2023/05/18 01:42:11;;;;;;;5.40;2.50;;;;;20.10;101574.00;;;;2077048;28;20685;-51
2023/05/18 01:43:14;;;;;;;4.63;2.50;;;;;20.10;101630.00;;;;2056385;28;20246;-51
2023/05/18 01:44:26;;;;;;;5.65;2.33;;;;;20.10;101613.00;;;;2068628;28;20222;-51
2023/05/18 01:45:26;;;;;;;3.38;2.40;;;;;20.10;101607.00;;;;2070246;28;20226;-51
2023/05/18 01:46:37;;;;;;;2.93;2.10;;;;;20.10;101607.00;;;;2073797;28;20209;-51
2023/05/18 01:47:38;;;;;;;3.22;2.40;;;;;20.10;101608.00;;;;2060002;28;20800;-51
2023/05/18 01:48:38;;;;;;;5.00;1.90;;;;;20.10;101608.00;;;;2066545;28;20234;-51
2023/05/18 01:49:58;;;;;;;4.97;2.37;;;;;20.10;101605.00;;;;2059298;28;20224;-50
2023/05/18 01:50:59;;;;;;;3.95;2.53;;;;;20.10;101608.00;;;;2058650;28;20679;-51
2023/05/18 01:52:05;;;;;;;4.30;2.30;;;;;20.10;101606.00;;;;2063301;28;20316;-51
2023/05/18 01:53:18;;;;;;;3.67;2.33;;;;;20.10;101609.00;;;;2057991;28;20226;-51
2023/05/18 01:54:18;;;;;;;3.35;2.25;;;;;20.10;101605.00;;;;2076513;28;20217;-51
2023/05/18 01:55:18;;;;;;;5.40;3.07;;;;;20.00;101606.00;;;;2078597;28;20217;-51
2023/05/18 01:56:20;;;;;;;2.90;2.00;;;;;20.10;101613.00;;;;2078059;28;20311;-51
2023/05/18 01:57:20;;;;;;;3.58;2.40;;;;;20.10;101608.00;;;;2057572;28;20741;-51
2023/05/18 01:58:21;;;;;;;3.57;2.30;;;;;20.10;101604.00;;;;2067446;28;20293;-56
2023/05/18 01:59:22;;;;;;;5.03;2.10;;;;;20.10;101603.00;;;;2060253;28;20235;-51
2023/05/18 02:00:23;;;;;;;4.15;2.08;;;;;20.00;101600.00;;;;2073319;28;20226;-49
2023/05/18 02:01:23;;;;;;;3.93;2.23;;;;;20.00;101604.00;;;;2067763;28;20214;-48
2023/05/18 02:02:23;;;;;;;4.93;2.30;;;;;20.10;101604.00;;;;2066110;28;20264;-48
2023/05/18 02:03:24;;;;;;;3.60;2.10;;;;;20.10;101603.00;;;;2060075;28;20246;-49
2023/05/18 02:04:24;;;;;;;4.10;2.00;;;;;20.00;101600.00;;;;2061202;28;20285;-48
2023/05/18 02:05:24;;;;;;;3.20;2.33;;;;;20.10;101602.00;;;;2081652;28;20217;-49
2023/05/18 02:06:25;;;;;;;5.40;2.33;;;;;20.00;101606.00;;;;2077108;28;20678;-49
2023/05/18 02:07:25;;;;;;;2.77;1.97;;;;;20.00;101603.00;;;;2067497;28;20613;-49
2023/05/18 02:08:26;;;;;;;5.67;2.40;;;;;20.00;101599.00;;;;2084629;28;20943;-49
2023/05/18 02:09:26;;;;;;;5.30;1.63;;;;;19.90;101603.00;;;;2082153;28;20213;-49
2023/05/18 02:10:26;;;;;;;3.10;2.13;;;;;20.00;101603.00;;;;2082120;28;20231;-49
2023/05/18 02:11:27;;;;;;;3.00;2.10;;;;;20.00;101603.00;;;;2076531;28;20677;-49
2023/05/18 02:12:27;;;;;;;5.20;2.47;;;;;20.10;101602.00;;;;2067421;28;20216;-49
2023/05/18 02:13:27;;;;;;;3.07;2.10;;;;;20.10;101602.00;;;;2084476;28;20216;-50
2023/05/18 02:14:28;;;;;;;2.23;1.87;;;;;20.10;101600.00;;;;2084957;28;20274;-49
2023/05/18 02:15:28;;;;;;;4.17;2.40;;;;;20.10;101605.00;;;;2076586;28;20206;-50
2023/05/18 02:16:28;;;;;;;4.60;2.37;;;;;20.10;101599.00;;;;2076599;28;20209;-49
2023/05/18 02:17:29;;;;;;;2.90;1.93;;;;;20.20;101605.00;;;;2067424;28;20221;-48
2023/05/18 02:18:32;;;;;;;5.33;2.20;;;;;20.20;101605.00;;;;2076484;28;20224;-49
2023/05/18 02:19:37;;;;;;;7.70;2.60;;;;;20.20;101600.00;;;;2076639;28;20683;-50
2023/05/18 02:20:37;;;;;;;2.30;1.80;;;;;20.10;101600.00;;;;2076577;28;20213;-49
2023/05/18 02:21:38;;;;;;;4.17;1.90;;;;;20.20;101601.00;;;;2075415;28;20228;-49
2023/05/18 02:22:38;;;;;;;4.20;2.10;;;;;20.10;101613.00;;;;2067809;28;20252;-49
2023/05/18 02:23:42;;;;;;;4.87;2.13;;;;;20.20;101606.00;;;;2076743;28;20457;-50
2023/05/18 02:24:42;;;;;;;4.82;2.35;;;;;20.20;101605.00;;;;2074636;28;20214;-49
2023/05/18 02:25:43;;;;;;;3.23;1.77;;;;;20.10;101605.00;;;;2076834;28;20312;-50
2023/05/18 02:26:43;;;;;;;3.40;2.00;;;;;20.20;101612.00;;;;2076360;28;20222;-49
2023/05/18 02:27:44;;;;;;;4.70;1.90;;;;;20.20;101608.00;;;;2068124;28;20300;-49
2023/05/18 02:28:44;;;;;;;4.23;2.07;;;;;20.20;101612.00;;;;2083731;28;20216;-49
2023/05/18 02:29:45;;;;;;;2.67;2.07;;;;;20.20;101605.00;;;;2078324;28;20218;-50
2023/05/18 02:30:46;;;;;;;2.03;1.80;;;;;20.10;101605.00;;;;2076147;28;20312;-49
2023/05/18 02:31:46;;;;;;;2.93;2.00;;;;;20.10;101604.00;;;;2076702;28;20275;-49
2023/05/18 02:32:48;;;;;;;3.40;1.83;;;;;20.10;101609.00;;;;2070388;28;20221;-50
2023/05/18 02:33:48;;;;;;;2.33;1.90;;;;;20.10;101608.00;;;;2080390;28;20243;-49
2023/05/18 02:34:52;;;;;;;4.60;1.90;;;;;20.10;101606.00;;;;2080034;28;20221;-49
2023/05/18 02:35:52;;;;;;;2.22;1.80;;;;;20.10;101622.00;;;;2076298;28;20221;-50
2023/05/18 02:36:56;;;;;;;4.27;2.30;;;;;20.10;101613.00;;;;2078320;28;20562;-49
2023/05/18 02:37:57;;;;;;;2.92;1.70;;;;;20.10;101605.00;;;;2072305;28;20239;-49
2023/05/18 02:38:57;;;;;;;3.70;2.07;;;;;20.10;101617.00;;;;2083232;28;20213;-50
2023/05/18 02:39:57;;;;;;;3.27;1.70;;;;;20.10;101606.00;;;;2077918;28;20225;-49
2023/05/18 02:40:58;;;;;;;3.30;2.13;;;;;20.10;101604.00;;;;2071901;28;20217;-50
2023/05/18 02:41:58;;;;;;;3.00;1.60;;;;;20.00;101605.00;;;;2076764;28;20288;-49
2023/05/18 02:42:59;;;;;;;3.43;2.17;;;;;20.10;101615.00;;;;2050874;28;20216;-50
2023/05/18 02:44:01;;;;;;;3.63;1.63;;;;;20.10;101606.00;;;;2083982;28;20216;-50
2023/05/18 02:45:01;;;;;;;4.63;2.10;;;;;20.10;101608.00;;;;2075893;28;20307;-49
2023/05/18 02:46:02;;;;;;;2.50;1.90;;;;;20.10;101613.00;;;;2076201;28;20205;-49
2023/05/18 02:47:02;;;;;;;2.35;1.90;;;;;20.00;101608.00;;;;2076722;28;20289;-49
2023/05/18 02:48:03;;;;;;;3.40;2.50;;;;;20.00;101614.00;;;;2071324;28;20616;-49
2023/05/18 02:49:03;;;;;;;3.90;2.77;;;;;20.00;101619.00;;;;2083557;28;20209;-49
2023/05/18 02:50:04;;;;;;;5.50;3.47;;;;;20.00;101609.00;;;;2074647;28;20275;-49
2023/05/18 02:51:04;;;;;;;4.40;3.27;;;;;20.00;101619.00;;;;2076038;28;20249;-49
2023/05/18 02:52:05;;;;;;;6.57;4.53;;;;;20.00;101618.00;;;;2079944;28;20721;-49
2023/05/18 02:53:05;;;;;;;6.47;4.70;;;;;20.00;101619.00;;;;2071916;28;20735;-49
2023/05/18 02:54:06;;;;;;;6.60;4.93;;;;;20.00;101623.00;;;;2084253;28;20293;-49
2023/05/18 02:55:06;;;;;;;10.33;7.53;;;;;20.00;101614.00;;;;2077102;28;20201;-49
2023/05/18 02:56:07;;;;;;;8.20;5.90;;;;;20.00;101615.00;;;;2052886;28;20202;-49
2023/05/18 02:57:07;;;;;;;10.40;7.50;;;;;20.00;101621.00;;;;2080984;28;20208;-49
2023/05/18 02:58:12;;;;;;;12.40;8.67;;;;;20.00;101618.00;;;;2069659;28;20206;-50
2023/05/18 02:59:13;;;;;;;13.60;8.90;;;;;20.00;101622.00;;;;2083707;28;20220;-50
2023/05/18 03:00:15;;;;;;;11.37;7.70;;;;;20.00;101624.00;;;;2078136;28;20292;-50
2023/05/18 03:01:15;;;;;;;13.30;7.82;;;;;20.00;101617.00;;;;2077053;28;20758;-49
2023/05/18 03:02:16;;;;;;;11.33;8.47;;;;;20.00;101625.00;;;;2065705;28;20225;-52
2023/05/18 03:03:16;;;;;;;11.07;8.53;;;;;20.00;101623.00;;;;2083936;28;20224;-49
2023/05/18 03:04:17;;;;;;;14.57;9.73;;;;;20.00;101621.00;;;;2083738;28;20291;-49
2023/05/18 03:05:22;;;;;;;12.40;8.90;;;;;20.00;101629.00;;;;2076357;28;20593;-50
2023/05/18 03:06:25;;;;;;;13.75;9.55;;;;;20.00;101623.00;;;;2075612;28;20228;-50
2023/05/18 03:07:26;;;;;;;10.65;7.65;;;;;20.00;101618.00;;;;2065456;28;20225;-50
2023/05/18 03:08:27;;;;;;;12.70;9.13;;;;;20.00;101626.00;;;;2083622;28;20287;-49
2023/05/18 03:09:28;;;;;;;13.18;8.32;;;;;20.00;101623.00;;;;2076550;28;20339;-49
2023/05/18 03:10:28;;;;;;;13.57;9.60;;;;;20.00;101617.00;;;;2076255;28;20221;-50
2023/05/18 03:11:29;;;;;;;13.90;9.47;;;;;20.00;101634.00;;;;2075742;28;20233;-49
2023/05/18 03:12:29;;;;;;;13.30;10.13;;;;;19.90;101624.00;;;;2068711;28;20217;-49
2023/05/18 03:13:29;;;;;;;14.57;9.63;;;;;20.00;101622.00;;;;2085104;28;20225;-49
2023/05/18 03:14:30;;;;;;;12.00;9.50;;;;;20.00;101619.00;;;;2074746;28;20263;-49
2023/05/18 03:15:31;;;;;;;13.90;9.80;;;;;20.00;101622.00;;;;2077707;28;20210;-49
2023/05/18 03:16:31;;;;;;;15.98;10.75;;;;;20.00;101624.00;;;;2079169;28;20260;-49
2023/05/18 03:17:32;;;;;;;14.90;10.67;;;;;19.90;101623.00;;;;2070829;28;20924;-50
2023/05/18 03:18:32;;;;;;;15.50;11.20;;;;;19.90;101618.00;;;;2077417;28;20644;-49
2023/05/18 03:19:33;;;;;;;16.17;11.03;;;;;19.90;101620.00;;;;2075113;28;20448;-49
2023/05/18 03:20:34;;;;;;;16.83;11.73;;;;;19.90;101622.00;;;;2077433;28;20221;-50
2023/05/18 03:21:35;;;;;;;18.00;11.47;;;;;19.90;101616.00;;;;2078738;28;20463;-50
2023/05/18 03:22:35;;;;;;;14.43;10.50;;;;;19.90;101625.00;;;;2068915;28;20298;-49
2023/05/18 03:23:35;;;;;;;14.53;11.00;;;;;19.90;101623.00;;;;2085012;28;20213;-49
2023/05/18 03:24:38;;;;;;;16.40;12.40;;;;;19.90;101621.00;;;;2081346;28;20301;-49
2023/05/18 03:25:39;;;;;;;15.80;11.80;;;;;19.90;101626.00;;;;2077930;28;20213;-49
2023/05/18 03:26:43;;;;;;;13.80;11.10;;;;;19.90;101624.00;;;;2078149;28;20320;-49
2023/05/18 03:27:43;;;;;;;18.35;11.60;;;;;19.90;101625.00;;;;2068733;28;20221;-49
2023/05/18 03:28:43;;;;;;;14.67;11.20;;;;;19.90;101617.00;;;;2078038;28;20580;-50
2023/05/18 03:29:44;;;;;;;14.67;10.50;;;;;19.90;101617.00;;;;2080676;28;20561;-49
2023/05/18 03:30:44;;;;;;;15.17;11.50;;;;;19.90;101623.00;;;;2076084;28;20710;-49
2023/05/18 03:31:45;;;;;;;15.70;11.57;;;;;19.90;101618.00;;;;2077203;28;20248;-50
2023/05/18 03:32:46;;;;;;;15.27;11.00;;;;;19.90;101622.00;;;;2058561;28;20218;-49
2023/05/18 03:33:46;;;;;;;14.60;11.20;;;;;19.90;101626.00;;;;2081986;28;20224;-50
2023/05/18 03:34:46;;;;;;;14.63;11.13;;;;;19.90;101618.00;;;;2081267;28;20448;-49
2023/05/18 03:35:47;;;;;;;16.77;11.20;;;;;19.90;101619.00;;;;2075112;28;21247;-50
2023/05/18 03:36:51;;;;;;;13.57;11.20;;;;;19.90;101622.00;;;;2077868;28;20579;-49
2023/05/18 03:37:51;;;;;;;17.25;12.13;;;;;19.90;101620.00;;;;2071336;28;20462;-50
2023/05/18 03:38:51;;;;;;;16.47;12.20;;;;;19.90;101620.00;;;;2085703;28;20215;-49
2023/05/18 03:39:52;;;;;;;17.03;12.90;;;;;19.90;101619.00;;;;2078813;28;20221;-49
2023/05/18 03:40:52;;;;;;;19.57;14.77;;;;;19.90;101620.00;;;;2076291;28;20206;-49
2023/05/18 03:41:53;;;;;;;22.37;14.60;;;;;19.90;101617.00;;;;2077920;28;20787;-50
2023/05/18 03:42:53;;;;;;;20.50;14.77;;;;;19.90;101618.00;;;;2069245;28;20301;-50
2023/05/18 03:43:53;;;;;;;22.57;16.83;;;;;19.90;101616.00;;;;2082322;28;20217;-49
2023/05/18 03:44:53;;;;;;;21.70;15.00;;;;;19.90;101620.00;;;;2078868;28;20232;-49
2023/05/18 03:45:54;;;;;;;21.20;14.23;;;;;19.90;101623.00;;;;2072796;28;20225;-51
2023/05/18 03:46:55;;;;;;;25.60;16.53;;;;;19.90;101617.00;;;;2077833;28;20279;-50
2023/05/18 03:47:55;;;;;;;22.60;16.87;;;;;19.90;101619.00;;;;2071906;28;20609;-50
2023/05/18 03:48:56;;;;;;;22.10;16.40;;;;;19.90;101614.00;;;;2085553;28;20294;-51
2023/05/18 03:49:57;;;;;;;23.50;17.98;;;;;19.90;101612.00;;;;2081946;28;20598;-50
2023/05/18 03:50:57;;;;;;;23.37;17.10;;;;;19.90;101616.00;;;;2080792;28;20217;-50
2023/05/18 03:51:57;;;;;;;22.93;15.97;;;;;19.90;101620.00;;;;2072486;28;20776;-55
2023/05/18 03:52:58;;;;;;;25.97;18.87;;;;;19.90;101617.00;;;;2062393;28;20863;-53
2023/05/18 03:53:58;;;;;;;26.30;18.67;;;;;19.90;101620.00;;;;2084636;28;20208;-52
2023/05/18 03:55:00;;;;;;;27.30;20.60;;;;;19.90;101616.00;;;;2077804;28;20205;-51
2023/05/18 03:56:00;;;;;;;27.23;20.25;;;;;19.90;101621.00;;;;2077736;28;20248;-50
2023/05/18 03:57:01;;;;;;;24.17;18.13;;;;;19.90;101618.00;;;;2079857;28;20209;-50
2023/05/18 03:58:02;;;;;;;27.87;20.17;;;;;19.90;101621.00;;;;2078434;28;20197;-50
2023/05/18 03:59:03;;;;;;;25.93;19.83;;;;;19.90;101609.00;;;;2088876;28;20205;-50
2023/05/18 04:00:07;;;;;;;31.90;21.60;;;;;19.90;101622.00;;;;2082499;28;20559;-50
2023/05/18 04:01:08;;;;;;;23.45;17.83;;;;;19.90;101618.00;;;;2077024;28;20460;-50
2023/05/18 04:02:09;;;;;;;28.60;20.63;;;;;19.90;101624.00;;;;2077231;28;20221;-50
2023/05/18 04:03:11;;;;;;;28.02;19.92;;;;;19.90;101619.00;;;;2074045;28;20224;-50
2023/05/18 04:04:16;;;;;;;28.80;21.05;;;;;19.90;101622.00;;;;2085778;28;20209;-50
2023/05/18 04:05:17;;;;;;;27.23;20.27;;;;;19.90;101627.00;;;;2076854;28;20218;-50
2023/05/18 04:06:21;;;;;;;25.77;19.17;;;;;19.90;101628.00;;;;2077675;28;20229;-50
2023/05/18 04:07:23;;;;;;;26.75;20.15;;;;;19.80;101618.00;;;;2069733;28;20995;-50
2023/05/18 04:08:24;;;;;;;25.73;20.20;;;;;19.90;101620.00;;;;2085132;28;20588;-50
2023/05/18 04:09:24;;;;;;;28.45;20.40;;;;;19.90;101627.00;;;;2076488;28;20686;-50
2023/05/18 04:10:25;;;;;;;25.73;19.17;;;;;19.90;101632.00;;;;2076881;28;20225;-50
2023/05/18 04:11:25;;;;;;;23.90;18.47;;;;;19.90;101642.00;;;;2079272;28;20697;-50
2023/05/18 04:12:25;;;;;;;26.10;19.43;;;;;19.90;101632.00;;;;2069871;28;20308;-51
2023/05/18 04:13:26;;;;;;;27.07;17.97;;;;;19.90;101621.00;;;;2084608;28;20762;-50
2023/05/18 04:14:26;;;;;;;25.80;18.60;;;;;19.80;101633.00;;;;2083951;28;20692;-50
2023/05/18 04:15:27;;;;;;;24.40;18.67;;;;;19.90;101633.00;;;;2077561;28;20291;-50
2023/05/18 04:16:27;;;;;;;25.93;18.27;;;;;19.80;101629.00;;;;2081279;28;20224;-51
2023/05/18 04:17:28;;;;;;;21.97;17.07;;;;;19.90;101630.00;;;;2069544;28;20221;-51
2023/05/18 04:18:29;;;;;;;23.70;16.70;;;;;19.80;101637.00;;;;2084816;28;20223;-55
2023/05/18 04:19:38;;;;;;;22.90;17.93;;;;;19.90;101632.00;;;;2081206;28;20223;-50
2023/05/18 04:20:40;;;;;;;23.40;17.08;;;;;19.90;101634.00;;;;2069658;28;20641;-50
2023/05/18 04:21:42;;;;;;;22.40;16.90;;;;;19.80;101625.00;;;;2083862;28;20263;-50
2023/05/18 04:22:45;;;;;;;21.48;16.52;;;;;19.80;101628.00;;;;2065568;28;20741;-50
2023/05/18 04:23:46;;;;;;;20.85;15.68;;;;;19.80;101630.00;;;;2077076;28;20287;-50
2023/05/18 04:24:46;;;;;;;18.37;15.30;;;;;19.80;101638.00;;;;2074861;28;20222;-50
2023/05/18 04:25:48;;;;;;;21.70;15.63;;;;;19.80;101635.00;;;;2077191;28;20221;-50
2023/05/18 04:26:48;;;;;;;21.08;16.08;;;;;19.80;101632.00;;;;2077584;28;20600;-50
2023/05/18 04:27:49;;;;;;;22.27;15.40;;;;;19.80;101633.00;;;;2071089;28;20248;-50
2023/05/18 04:28:50;;;;;;;20.10;15.03;;;;;19.80;101637.00;;;;2085502;28;20645;-50
2023/05/18 04:29:50;;;;;;;19.27;14.85;;;;;19.80;101636.00;;;;2084139;28;20463;-50
2023/05/18 04:30:51;;;;;;;19.57;14.13;;;;;19.80;101636.00;;;;2076705;28;20213;-50
2023/05/18 04:31:52;;;;;;;18.60;14.73;;;;;19.90;101636.00;;;;2077123;28;20272;-50
2023/05/18 04:32:53;;;;;;;17.80;14.00;;;;;19.90;101640.00;;;;2072216;28;20684;-50
2023/05/18 04:33:54;;;;;;;21.53;14.53;;;;;19.90;101638.00;;;;2085082;28;20221;-50
2023/05/18 04:34:57;;;;;;;19.00;13.80;;;;;19.90;101637.00;;;;2080012;28;20455;-50
2023/05/18 04:36:03;;;;;;;17.70;12.73;;;;;19.90;101643.00;;;;2077440;28;20690;-50
2023/05/18 04:37:04;;;;;;;17.55;13.50;;;;;19.90;101636.00;;;;2077269;28;20226;-50
2023/05/18 04:38:05;;;;;;;17.77;12.90;;;;;19.90;101645.00;;;;2074524;28;20646;-50
2023/05/18 04:39:06;;;;;;;18.83;12.80;;;;;19.90;101646.00;;;;2084999;28;20494;-50
2023/05/18 04:40:07;;;;;;;16.42;12.18;;;;;19.90;101644.00;;;;2078269;28;20544;-50
2023/05/18 04:41:08;;;;;;;16.40;12.18;;;;;19.90;101636.00;;;;2076566;28;20794;-50
2023/05/18 04:42:09;;;;;;;17.80;12.67;;;;;19.90;101646.00;;;;2077544;28;20225;-50
2023/05/18 04:43:09;;;;;;;17.17;12.23;;;;;19.90;101654.00;;;;2069448;28;20228;-50
2023/05/18 04:44:12;;;;;;;19.90;12.67;;;;;19.90;101648.00;;;;2081741;28;20223;-50
2023/05/18 04:45:15;;;;;;;18.58;11.98;;;;;19.90;101650.00;;;;2069937;28;20599;-50
2023/05/18 04:46:18;;;;;;;17.05;11.90;;;;;19.90;101654.00;;;;2075173;28;20225;-50
2023/05/18 04:47:20;;;;;;;17.15;10.95;;;;;19.90;101647.00;;;;2069215;28;20209;-50
2023/05/18 04:48:21;;;;;;;15.52;11.35;;;;;19.90;101652.00;;;;2085627;28;20236;-51
2023/05/18 04:49:21;;;;;;;14.53;10.37;;;;;19.90;101655.00;;;;2082960;28;20244;-50
2023/05/18 04:50:22;;;;;;;14.40;10.57;;;;;19.90;101651.00;;;;2075854;28;20225;-50
2023/05/18 04:51:23;;;;;;;14.63;10.77;;;;;19.90;101648.00;;;;2076842;28;20948;-50
2023/05/18 04:52:23;;;;;;;15.37;10.83;;;;;19.90;101656.00;;;;2071093;28;20471;-51
2023/05/18 04:53:26;;;;;;;14.43;10.93;;;;;19.90;101655.00;;;;2084891;28;20251;-50
2023/05/18 04:54:29;;;;;;;13.15;9.77;;;;;19.90;101649.00;;;;2083609;28;20225;-50
2023/05/18 04:55:30;;;;;;;14.52;9.93;;;;;19.90;101649.00;;;;2076493;28;20213;-50
2023/05/18 04:56:30;;;;;;;14.00;10.60;;;;;19.60;101656.00;;;;2077550;28;20233;-50
2023/05/18 04:57:30;;;;;;;13.50;9.67;;;;;19.90;101650.00;;;;2070578;28;20225;-51
2023/05/18 04:58:33;;;;;;;16.20;10.60;;;;;19.90;101653.00;;;;2084790;28;20225;-50
2023/05/18 04:59:35;;;;;;;13.20;9.75;;;;;19.90;101653.00;;;;2082228;28;20201;-50
2023/05/18 05:00:36;;;;;;;12.48;8.90;;;;;19.90;101653.00;;;;2071215;28;20321;-50
2023/05/18 05:01:36;;;;;;;14.67;9.80;;;;;19.90;101658.00;;;;2077219;28;20214;-50
2023/05/18 05:02:37;;;;;;;12.17;8.60;;;;;19.90;101656.00;;;;2072566;28;20228;-50